sensor_id;sensor_type;location;lat;lon;timestamp;P1;durP1;ratioP1;P2;durP2;ratioP2
67747;SDS011;54543;50.712;6.070;2023-03-24T00:01:12;3.92;;;2.00;;
67747;SDS011;54543;50.712;6.070;2023-03-24T00:03:38;3.95;;;2.10;;
67747;SDS011;54543;50.712;6.070;2023-03-24T00:06:04;3.40;;;2.00;;
67747;SDS011;54543;50.712;6.070;2023-03-24T00:08:32;3.38;;;1.95;;
67747;SDS011;54543;50.712;6.070;2023-03-24T00:11:04;3.85;;;2.00;;
67747;SDS011;54543;50.712;6.070;2023-03-24T00:13:31;2.55;;;1.60;;
67747;SDS011;54543;50.712;6.070;2023-03-24T00:16:05;4.03;;;2.40;;
67747;SDS011;54543;50.712;6.070;2023-03-24T00:18:33;3.00;;;1.95;;
67747;SDS011;54543;50.712;6.070;2023-03-24T00:21:01;3.58;;;2.20;;
67747;SDS011;54543;50.712;6.070;2023-03-24T00:23:28;3.58;;;2.15;;
67747;SDS011;54543;50.712;6.070;2023-03-24T00:26:02;3.75;;;2.10;;
67747;SDS011;54543;50.712;6.070;2023-03-24T00:28:30;3.17;;;1.90;;
67747;SDS011;54543;50.712;6.070;2023-03-24T00:30:57;4.47;;;2.20;;
67747;SDS011;54543;50.712;6.070;2023-03-24T00:33:23;3.03;;;1.90;;
67747;SDS011;54543;50.712;6.070;2023-03-24T00:35:49;3.42;;;2.10;;
67747;SDS011;54543;50.712;6.070;2023-03-24T00:38:15;3.80;;;2.72;;
67747;SDS011;54543;50.712;6.070;2023-03-24T00:40:47;3.63;;;2.53;;
67747;SDS011;54543;50.712;6.070;2023-03-24T00:43:14;3.83;;;2.25;;
67747;SDS011;54543;50.712;6.070;2023-03-24T00:45:40;6.30;;;2.90;;
67747;SDS011;54543;50.712;6.070;2023-03-24T00:48:13;5.72;;;5.07;;
67747;SDS011;54543;50.712;6.070;2023-03-24T00:50:45;4.38;;;3.25;;
67747;SDS011;54543;50.712;6.070;2023-03-24T00:53:16;4.93;;;3.17;;
67747;SDS011;54543;50.712;6.070;2023-03-24T00:55:43;3.83;;;2.70;;
67747;SDS011;54543;50.712;6.070;2023-03-24T00:58:12;4.10;;;2.95;;
67747;SDS011;54543;50.712;6.070;2023-03-24T01:00:44;3.45;;;2.40;;
67747;SDS011;54543;50.712;6.070;2023-03-24T01:03:10;3.17;;;2.15;;
67747;SDS011;54543;50.712;6.070;2023-03-24T01:05:35;4.10;;;2.40;;
67747;SDS011;54543;50.712;6.070;2023-03-24T01:08:02;3.90;;;2.80;;
67747;SDS011;54543;50.712;6.070;2023-03-24T01:10:29;3.97;;;2.58;;
67747;SDS011;54543;50.712;6.070;2023-03-24T01:12:57;6.35;;;2.33;;
67747;SDS011;54543;50.712;6.070;2023-03-24T01:15:29;3.58;;;2.55;;
67747;SDS011;54543;50.712;6.070;2023-03-24T01:17:57;3.45;;;2.50;;
67747;SDS011;54543;50.712;6.070;2023-03-24T01:20:26;4.20;;;2.30;;
67747;SDS011;54543;50.712;6.070;2023-03-24T01:22:57;4.28;;;2.42;;
67747;SDS011;54543;50.712;6.070;2023-03-24T01:25:26;3.97;;;2.22;;
67747;SDS011;54543;50.712;6.070;2023-03-24T01:27:52;2.65;;;2.13;;
67747;SDS011;54543;50.712;6.070;2023-03-24T01:30:21;3.33;;;2.10;;
67747;SDS011;54543;50.712;6.070;2023-03-24T01:32:48;3.25;;;2.38;;
67747;SDS011;54543;50.712;6.070;2023-03-24T01:35:16;3.78;;;2.50;;
67747;SDS011;54543;50.712;6.070;2023-03-24T01:37:43;4.38;;;2.63;;
67747;SDS011;54543;50.712;6.070;2023-03-24T01:40:10;3.55;;;2.58;;
67747;SDS011;54543;50.712;6.070;2023-03-24T01:42:41;3.72;;;2.28;;
67747;SDS011;54543;50.712;6.070;2023-03-24T01:48:05;3.90;;;2.90;;
67747;SDS011;54543;50.712;6.070;2023-03-24T01:50:33;3.33;;;2.40;;
67747;SDS011;54543;50.712;6.070;2023-03-24T01:52:59;3.13;;;2.30;;
67747;SDS011;54543;50.712;6.070;2023-03-24T01:55:25;3.92;;;2.67;;
67747;SDS011;54543;50.712;6.070;2023-03-24T01:57:55;3.95;;;2.42;;
67747;SDS011;54543;50.712;6.070;2023-03-24T02:00:23;3.33;;;2.42;;
67747;SDS011;54543;50.712;6.070;2023-03-24T02:02:52;4.63;;;2.60;;
67747;SDS011;54543;50.712;6.070;2023-03-24T02:05:23;4.78;;;2.78;;
67747;SDS011;54543;50.712;6.070;2023-03-24T02:11:00;3.40;;;2.35;;
67747;SDS011;54543;50.712;6.070;2023-03-24T02:13:27;3.78;;;2.35;;
67747;SDS011;54543;50.712;6.070;2023-03-24T02:16:03;4.03;;;2.33;;
67747;SDS011;54543;50.712;6.070;2023-03-24T02:18:59;3.85;;;2.50;;
67747;SDS011;54543;50.712;6.070;2023-03-24T02:27:44;4.00;;;2.53;;
67747;SDS011;54543;50.712;6.070;2023-03-24T02:44:38;3.47;;;2.38;;
67747;SDS011;54543;50.712;6.070;2023-03-24T02:47:29;3.80;;;2.63;;
67747;SDS011;54543;50.712;6.070;2023-03-24T02:50:26;3.10;;;2.30;;
67747;SDS011;54543;50.712;6.070;2023-03-24T02:52:59;4.35;;;2.70;;
67747;SDS011;54543;50.712;6.070;2023-03-24T02:55:32;3.75;;;2.33;;
67747;SDS011;54543;50.712;6.070;2023-03-24T02:58:07;3.85;;;2.45;;
67747;SDS011;54543;50.712;6.070;2023-03-24T03:00:46;4.32;;;2.72;;
67747;SDS011;54543;50.712;6.070;2023-03-24T03:03:28;3.20;;;2.25;;
67747;SDS011;54543;50.712;6.070;2023-03-24T03:08:45;4.38;;;2.80;;
67747;SDS011;54543;50.712;6.070;2023-03-24T03:11:12;4.38;;;3.00;;
67747;SDS011;54543;50.712;6.070;2023-03-24T03:13:43;4.30;;;3.05;;
67747;SDS011;54543;50.712;6.070;2023-03-24T03:16:17;4.60;;;2.58;;
67747;SDS011;54543;50.712;6.070;2023-03-24T03:18:52;4.35;;;2.95;;
67747;SDS011;54543;50.712;6.070;2023-03-24T03:21:22;3.88;;;2.85;;
67747;SDS011;54543;50.712;6.070;2023-03-24T03:23:56;5.60;;;2.78;;
67747;SDS011;54543;50.712;6.070;2023-03-24T03:26:26;4.22;;;2.63;;
67747;SDS011;54543;50.712;6.070;2023-03-24T03:28:57;3.78;;;2.83;;
67747;SDS011;54543;50.712;6.070;2023-03-24T03:31:33;3.58;;;2.80;;
67747;SDS011;54543;50.712;6.070;2023-03-24T03:37:08;4.38;;;2.88;;
67747;SDS011;54543;50.712;6.070;2023-03-24T03:39:36;5.45;;;2.75;;
67747;SDS011;54543;50.712;6.070;2023-03-24T03:42:06;3.47;;;2.22;;
67747;SDS011;54543;50.712;6.070;2023-03-24T03:44:32;3.67;;;2.80;;
67747;SDS011;54543;50.712;6.070;2023-03-24T03:46:58;4.20;;;3.15;;
67747;SDS011;54543;50.712;6.070;2023-03-24T03:49:24;5.00;;;2.53;;
67747;SDS011;54543;50.712;6.070;2023-03-24T03:51:50;4.25;;;2.45;;
67747;SDS011;54543;50.712;6.070;2023-03-24T03:54:16;4.10;;;2.60;;
67747;SDS011;54543;50.712;6.070;2023-03-24T03:56:43;4.07;;;2.35;;
67747;SDS011;54543;50.712;6.070;2023-03-24T03:59:20;3.15;;;2.33;;
67747;SDS011;54543;50.712;6.070;2023-03-24T04:01:49;5.20;;;2.90;;
67747;SDS011;54543;50.712;6.070;2023-03-24T04:20:29;6.15;;;3.70;;
67747;SDS011;54543;50.712;6.070;2023-03-24T04:28:50;4.25;;;2.35;;
67747;SDS011;54543;50.712;6.070;2023-03-24T04:31:33;3.50;;;1.80;;
67747;SDS011;54543;50.712;6.070;2023-03-24T04:34:22;2.05;;;1.50;;
67747;SDS011;54543;50.712;6.070;2023-03-24T04:37:09;3.75;;;1.80;;
67747;SDS011;54543;50.712;6.070;2023-03-24T04:42:08;3.13;;;1.70;;
67747;SDS011;54543;50.712;6.070;2023-03-24T04:44:46;2.83;;;1.48;;
67747;SDS011;54543;50.712;6.070;2023-03-24T04:47:16;2.58;;;1.52;;
67747;SDS011;54543;50.712;6.070;2023-03-24T04:49:47;4.20;;;1.98;;
67747;SDS011;54543;50.712;6.070;2023-03-24T04:52:12;5.53;;;2.50;;
67747;SDS011;54543;50.712;6.070;2023-03-24T04:54:38;3.88;;;1.92;;
67747;SDS011;54543;50.712;6.070;2023-03-24T04:57:03;2.97;;;1.83;;
67747;SDS011;54543;50.712;6.070;2023-03-24T04:59:30;4.20;;;2.55;;
67747;SDS011;54543;50.712;6.070;2023-03-24T05:01:58;3.58;;;2.13;;
67747;SDS011;54543;50.712;6.070;2023-03-24T05:04:25;5.80;;;2.40;;
67747;SDS011;54543;50.712;6.070;2023-03-24T05:06:52;4.70;;;1.95;;
67747;SDS011;54543;50.712;6.070;2023-03-24T05:09:19;3.03;;;1.77;;
67747;SDS011;54543;50.712;6.070;2023-03-24T05:11:46;4.97;;;2.47;;
67747;SDS011;54543;50.712;6.070;2023-03-24T05:14:12;6.40;;;2.58;;
67747;SDS011;54543;50.712;6.070;2023-03-24T05:16:38;3.50;;;2.15;;
67747;SDS011;54543;50.712;6.070;2023-03-24T05:19:04;5.97;;;2.20;;
67747;SDS011;54543;50.712;6.070;2023-03-24T05:21:30;4.40;;;2.25;;
67747;SDS011;54543;50.712;6.070;2023-03-24T05:23:57;4.32;;;2.50;;
67747;SDS011;54543;50.712;6.070;2023-03-24T05:26:23;3.80;;;1.52;;
67747;SDS011;54543;50.712;6.070;2023-03-24T05:28:50;5.78;;;1.83;;
67747;SDS011;54543;50.712;6.070;2023-03-24T05:31:16;4.88;;;2.55;;
67747;SDS011;54543;50.712;6.070;2023-03-24T05:33:42;4.38;;;1.88;;
67747;SDS011;54543;50.712;6.070;2023-03-24T05:36:09;5.65;;;2.10;;
67747;SDS011;54543;50.712;6.070;2023-03-24T05:38:35;4.85;;;2.60;;
67747;SDS011;54543;50.712;6.070;2023-03-24T05:41:01;4.65;;;2.08;;
67747;SDS011;54543;50.712;6.070;2023-03-24T05:43:27;4.80;;;2.10;;
67747;SDS011;54543;50.712;6.070;2023-03-24T05:45:52;10.25;;;4.70;;
67747;SDS011;54543;50.712;6.070;2023-03-24T05:48:20;5.38;;;2.55;;
67747;SDS011;54543;50.712;6.070;2023-03-24T05:50:45;5.68;;;2.53;;
67747;SDS011;54543;50.712;6.070;2023-03-24T05:53:11;5.35;;;2.00;;
67747;SDS011;54543;50.712;6.070;2023-03-24T05:55:37;5.85;;;3.10;;
67747;SDS011;54543;50.712;6.070;2023-03-24T05:58:04;11.32;;;5.90;;
67747;SDS011;54543;50.712;6.070;2023-03-24T06:00:30;15.43;;;6.72;;
67747;SDS011;54543;50.712;6.070;2023-03-24T06:02:56;7.22;;;3.08;;
67747;SDS011;54543;50.712;6.070;2023-03-24T06:05:22;15.60;;;7.45;;
67747;SDS011;54543;50.712;6.070;2023-03-24T06:07:48;7.47;;;3.67;;
67747;SDS011;54543;50.712;6.070;2023-03-24T06:10:14;8.27;;;3.28;;
67747;SDS011;54543;50.712;6.070;2023-03-24T06:12:43;7.75;;;3.17;;
67747;SDS011;54543;50.712;6.070;2023-03-24T06:15:10;6.95;;;3.85;;
67747;SDS011;54543;50.712;6.070;2023-03-24T06:17:36;7.32;;;3.13;;
67747;SDS011;54543;50.712;6.070;2023-03-24T06:20:02;11.32;;;5.72;;
67747;SDS011;54543;50.712;6.070;2023-03-24T06:22:30;10.65;;;3.65;;
67747;SDS011;54543;50.712;6.070;2023-03-24T06:24:56;9.95;;;4.40;;
67747;SDS011;54543;50.712;6.070;2023-03-24T06:27:23;6.00;;;3.00;;
67747;SDS011;54543;50.712;6.070;2023-03-24T06:29:56;9.48;;;3.45;;
67747;SDS011;54543;50.712;6.070;2023-03-24T06:32:22;10.18;;;2.88;;
67747;SDS011;54543;50.712;6.070;2023-03-24T06:34:48;9.75;;;3.80;;
67747;SDS011;54543;50.712;6.070;2023-03-24T06:37:13;15.07;;;6.97;;
67747;SDS011;54543;50.712;6.070;2023-03-24T06:39:39;14.43;;;7.10;;
67747;SDS011;54543;50.712;6.070;2023-03-24T06:42:05;11.68;;;5.57;;
67747;SDS011;54543;50.712;6.070;2023-03-24T06:44:31;20.33;;;10.90;;
67747;SDS011;54543;50.712;6.070;2023-03-24T06:46:57;12.85;;;7.28;;
67747;SDS011;54543;50.712;6.070;2023-03-24T06:49:22;21.17;;;10.43;;
67747;SDS011;54543;50.712;6.070;2023-03-24T06:51:48;12.43;;;5.65;;
67747;SDS011;54543;50.712;6.070;2023-03-24T06:54:14;11.40;;;4.00;;
67747;SDS011;54543;50.712;6.070;2023-03-24T06:56:41;6.97;;;3.15;;
67747;SDS011;54543;50.712;6.070;2023-03-24T06:59:06;6.97;;;3.58;;
67747;SDS011;54543;50.712;6.070;2023-03-24T07:01:33;8.63;;;3.60;;
67747;SDS011;54543;50.712;6.070;2023-03-24T07:04:00;8.13;;;4.22;;
67747;SDS011;54543;50.712;6.070;2023-03-24T07:06:26;13.27;;;4.32;;
67747;SDS011;54543;50.712;6.070;2023-03-24T07:08:51;11.48;;;4.78;;
67747;SDS011;54543;50.712;6.070;2023-03-24T07:11:17;9.88;;;4.22;;
67747;SDS011;54543;50.712;6.070;2023-03-24T07:13:42;8.65;;;3.78;;
67747;SDS011;54543;50.712;6.070;2023-03-24T07:16:08;16.60;;;6.75;;
67747;SDS011;54543;50.712;6.070;2023-03-24T07:18:33;10.75;;;4.57;;
67747;SDS011;54543;50.712;6.070;2023-03-24T07:20:59;8.90;;;3.20;;
67747;SDS011;54543;50.712;6.070;2023-03-24T07:23:24;8.13;;;2.80;;
67747;SDS011;54543;50.712;6.070;2023-03-24T07:25:51;5.82;;;2.08;;
67747;SDS011;54543;50.712;6.070;2023-03-24T07:28:17;5.65;;;2.45;;
67747;SDS011;54543;50.712;6.070;2023-03-24T07:30:43;11.30;;;4.75;;
67747;SDS011;54543;50.712;6.070;2023-03-24T07:33:09;5.82;;;2.72;;
67747;SDS011;54543;50.712;6.070;2023-03-24T07:35:36;9.63;;;4.70;;
67747;SDS011;54543;50.712;6.070;2023-03-24T07:38:03;7.82;;;3.33;;
67747;SDS011;54543;50.712;6.070;2023-03-24T07:40:28;7.25;;;2.50;;
67747;SDS011;54543;50.712;6.070;2023-03-24T07:42:54;8.48;;;4.53;;
67747;SDS011;54543;50.712;6.070;2023-03-24T07:45:24;11.20;;;4.05;;
67747;SDS011;54543;50.712;6.070;2023-03-24T07:47:50;10.18;;;3.55;;
67747;SDS011;54543;50.712;6.070;2023-03-24T07:50:15;9.52;;;3.17;;
67747;SDS011;54543;50.712;6.070;2023-03-24T07:52:42;11.80;;;4.13;;
67747;SDS011;54543;50.712;6.070;2023-03-24T07:55:11;9.18;;;3.78;;
67747;SDS011;54543;50.712;6.070;2023-03-24T07:57:39;7.70;;;3.38;;
67747;SDS011;54543;50.712;6.070;2023-03-24T08:00:06;9.18;;;3.55;;
67747;SDS011;54543;50.712;6.070;2023-03-24T08:02:40;9.17;;;3.17;;
67747;SDS011;54543;50.712;6.070;2023-03-24T08:05:07;10.45;;;4.47;;
67747;SDS011;54543;50.712;6.070;2023-03-24T08:07:35;8.68;;;2.97;;
67747;SDS011;54543;50.712;6.070;2023-03-24T08:10:01;6.57;;;2.40;;
67747;SDS011;54543;50.712;6.070;2023-03-24T08:12:28;7.25;;;2.70;;
67747;SDS011;54543;50.712;6.070;2023-03-24T08:14:54;9.35;;;3.40;;
67747;SDS011;54543;50.712;6.070;2023-03-24T08:17:19;4.70;;;2.60;;
67747;SDS011;54543;50.712;6.070;2023-03-24T08:19:45;5.38;;;2.13;;
67747;SDS011;54543;50.712;6.070;2023-03-24T08:22:12;7.20;;;2.35;;
67747;SDS011;54543;50.712;6.070;2023-03-24T08:24:37;6.88;;;2.20;;
67747;SDS011;54543;50.712;6.070;2023-03-24T08:27:03;6.72;;;2.03;;
67747;SDS011;54543;50.712;6.070;2023-03-24T08:29:32;6.75;;;2.00;;
67747;SDS011;54543;50.712;6.070;2023-03-24T08:31:59;6.72;;;1.85;;
67747;SDS011;54543;50.712;6.070;2023-03-24T08:34:25;5.22;;;2.13;;
67747;SDS011;54543;50.712;6.070;2023-03-24T08:36:51;8.77;;;1.90;;
67747;SDS011;54543;50.712;6.070;2023-03-24T08:39:17;6.45;;;1.88;;
67747;SDS011;54543;50.712;6.070;2023-03-24T08:41:42;5.28;;;1.88;;
67747;SDS011;54543;50.712;6.070;2023-03-24T08:44:09;6.93;;;1.95;;
67747;SDS011;54543;50.712;6.070;2023-03-24T08:46:35;9.23;;;2.08;;
67747;SDS011;54543;50.712;6.070;2023-03-24T08:49:01;7.55;;;3.15;;
67747;SDS011;54543;50.712;6.070;2023-03-24T08:51:27;7.18;;;3.15;;
67747;SDS011;54543;50.712;6.070;2023-03-24T08:53:53;6.78;;;2.20;;
67747;SDS011;54543;50.712;6.070;2023-03-24T08:56:19;6.07;;;2.05;;
67747;SDS011;54543;50.712;6.070;2023-03-24T08:58:46;4.30;;;2.10;;
67747;SDS011;54543;50.712;6.070;2023-03-24T09:01:13;10.43;;;1.80;;
67747;SDS011;54543;50.712;6.070;2023-03-24T09:03:39;7.85;;;1.80;;
67747;SDS011;54543;50.712;6.070;2023-03-24T09:06:05;9.02;;;2.20;;
67747;SDS011;54543;50.712;6.070;2023-03-24T09:08:32;6.65;;;2.33;;
67747;SDS011;54543;50.712;6.070;2023-03-24T09:10:58;7.60;;;2.72;;
67747;SDS011;54543;50.712;6.070;2023-03-24T09:13:23;10.45;;;2.22;;
67747;SDS011;54543;50.712;6.070;2023-03-24T09:15:50;6.47;;;2.00;;
67747;SDS011;54543;50.712;6.070;2023-03-24T09:18:17;5.43;;;1.83;;
67747;SDS011;54543;50.712;6.070;2023-03-24T09:20:44;7.40;;;2.72;;
67747;SDS011;54543;50.712;6.070;2023-03-24T09:23:10;7.03;;;2.50;;
67747;SDS011;54543;50.712;6.070;2023-03-24T09:25:36;9.35;;;2.65;;
67747;SDS011;54543;50.712;6.070;2023-03-24T09:28:02;8.75;;;1.83;;
67747;SDS011;54543;50.712;6.070;2023-03-24T09:30:28;4.70;;;2.05;;
67747;SDS011;54543;50.712;6.070;2023-03-24T09:32:54;7.43;;;2.28;;
67747;SDS011;54543;50.712;6.070;2023-03-24T09:35:23;9.52;;;1.85;;
67747;SDS011;54543;50.712;6.070;2023-03-24T09:37:49;6.57;;;2.13;;
67747;SDS011;54543;50.712;6.070;2023-03-24T09:40:19;5.85;;;1.63;;
67747;SDS011;54543;50.712;6.070;2023-03-24T09:42:50;5.50;;;1.52;;
67747;SDS011;54543;50.712;6.070;2023-03-24T09:45:29;5.22;;;1.90;;
67747;SDS011;54543;50.712;6.070;2023-03-24T09:48:02;4.35;;;2.10;;
67747;SDS011;54543;50.712;6.070;2023-03-24T09:50:40;4.68;;;2.00;;
67747;SDS011;54543;50.712;6.070;2023-03-24T09:53:21;3.05;;;1.60;;
67747;SDS011;54543;50.712;6.070;2023-03-24T09:55:55;6.28;;;2.10;;
67747;SDS011;54543;50.712;6.070;2023-03-24T09:58:26;4.68;;;1.65;;
67747;SDS011;54543;50.712;6.070;2023-03-24T10:00:54;5.07;;;1.65;;
67747;SDS011;54543;50.712;6.070;2023-03-24T10:03:21;5.90;;;1.73;;
67747;SDS011;54543;50.712;6.070;2023-03-24T10:06:03;5.50;;;2.08;;
67747;SDS011;54543;50.712;6.070;2023-03-24T10:08:38;7.55;;;1.60;;
67747;SDS011;54543;50.712;6.070;2023-03-24T10:17:04;4.50;;;1.52;;
67747;SDS011;54543;50.712;6.070;2023-03-24T10:19:44;6.97;;;1.77;;
67747;SDS011;54543;50.712;6.070;2023-03-24T10:30:40;5.20;;;1.45;;
67747;SDS011;54543;50.712;6.070;2023-03-24T10:33:11;4.43;;;1.65;;
67747;SDS011;54543;50.712;6.070;2023-03-24T10:35:57;3.10;;;1.33;;
67747;SDS011;54543;50.712;6.070;2023-03-24T10:38:28;4.47;;;1.75;;
67747;SDS011;54543;50.712;6.070;2023-03-24T10:40:54;3.65;;;1.38;;
67747;SDS011;54543;50.712;6.070;2023-03-24T10:43:19;4.00;;;1.40;;
67747;SDS011;54543;50.712;6.070;2023-03-24T10:45:50;6.32;;;1.55;;
67747;SDS011;54543;50.712;6.070;2023-03-24T10:51:04;4.68;;;2.05;;
67747;SDS011;54543;50.712;6.070;2023-03-24T10:53:31;3.50;;;1.52;;
67747;SDS011;54543;50.712;6.070;2023-03-24T10:55:58;2.95;;;1.40;;
67747;SDS011;54543;50.712;6.070;2023-03-24T10:58:37;6.32;;;1.80;;
67747;SDS011;54543;50.712;6.070;2023-03-24T11:01:22;4.82;;;1.67;;
67747;SDS011;54543;50.712;6.070;2023-03-24T11:03:51;4.60;;;1.60;;
67747;SDS011;54543;50.712;6.070;2023-03-24T11:06:18;2.97;;;1.27;;
67747;SDS011;54543;50.712;6.070;2023-03-24T11:08:45;4.75;;;1.40;;
67747;SDS011;54543;50.712;6.070;2023-03-24T11:11:26;7.60;;;1.70;;
67747;SDS011;54543;50.712;6.070;2023-03-24T11:13:55;7.10;;;1.70;;
67747;SDS011;54543;50.712;6.070;2023-03-24T11:16:41;5.60;;;1.60;;
67747;SDS011;54543;50.712;6.070;2023-03-24T11:19:23;7.60;;;1.67;;
67747;SDS011;54543;50.712;6.070;2023-03-24T11:21:50;6.25;;;1.60;;
67747;SDS011;54543;50.712;6.070;2023-03-24T11:24:21;5.82;;;1.63;;
67747;SDS011;54543;50.712;6.070;2023-03-24T11:26:59;5.72;;;1.48;;
67747;SDS011;54543;50.712;6.070;2023-03-24T11:29:26;5.97;;;1.58;;
67747;SDS011;54543;50.712;6.070;2023-03-24T11:31:58;4.00;;;1.63;;
67747;SDS011;54543;50.712;6.070;2023-03-24T11:34:32;3.15;;;1.38;;
67747;SDS011;54543;50.712;6.070;2023-03-24T11:40:13;3.08;;;1.33;;
67747;SDS011;54543;50.712;6.070;2023-03-24T11:42:46;5.10;;;2.00;;
67747;SDS011;54543;50.712;6.070;2023-03-24T11:45:25;4.32;;;1.90;;
67747;SDS011;54543;50.712;6.070;2023-03-24T11:47:56;5.38;;;1.77;;
67747;SDS011;54543;50.712;6.070;2023-03-24T11:50:24;4.28;;;1.88;;
67747;SDS011;54543;50.712;6.070;2023-03-24T11:53:16;8.15;;;2.38;;
67747;SDS011;54543;50.712;6.070;2023-03-24T11:58:33;3.05;;;1.17;;
67747;SDS011;54543;50.712;6.070;2023-03-24T12:37:17;3.65;;;1.15;;
67747;SDS011;54543;50.712;6.070;2023-03-24T12:42:47;3.85;;;1.35;;
67747;SDS011;54543;50.712;6.070;2023-03-24T12:45:36;4.70;;;1.20;;
67747;SDS011;54543;50.712;6.070;2023-03-24T12:48:10;2.90;;;1.30;;
67747;SDS011;54543;50.712;6.070;2023-03-24T12:51:13;3.30;;;1.40;;
67747;SDS011;54543;50.712;6.070;2023-03-24T12:56:15;4.00;;;1.77;;
67747;SDS011;54543;50.712;6.070;2023-03-24T12:58:57;4.03;;;1.83;;
67747;SDS011;54543;50.712;6.070;2023-03-24T13:01:40;3.72;;;1.38;;
67747;SDS011;54543;50.712;6.070;2023-03-24T13:09:34;6.80;;;2.00;;
67747;SDS011;54543;50.712;6.070;2023-03-24T13:20:27;6.03;;;2.17;;
67747;SDS011;54543;50.712;6.070;2023-03-24T13:22:57;3.55;;;1.33;;
67747;SDS011;54543;50.712;6.070;2023-03-24T13:25:30;5.25;;;1.65;;
67747;SDS011;54543;50.712;6.070;2023-03-24T13:28:06;4.13;;;1.63;;
67747;SDS011;54543;50.712;6.070;2023-03-24T13:30:38;6.43;;;1.65;;
67747;SDS011;54543;50.712;6.070;2023-03-24T13:35:44;6.50;;;1.50;;
67747;SDS011;54543;50.712;6.070;2023-03-24T13:41:03;3.35;;;1.20;;
67747;SDS011;54543;50.712;6.070;2023-03-24T13:43:30;3.47;;;1.10;;
67747;SDS011;54543;50.712;6.070;2023-03-24T14:01:30;4.97;;;1.90;;
67747;SDS011;54543;50.712;6.070;2023-03-24T14:06:58;4.85;;;1.65;;
67747;SDS011;54543;50.712;6.070;2023-03-24T14:09:55;5.47;;;1.42;;
67747;SDS011;54543;50.712;6.070;2023-03-24T14:12:23;3.97;;;1.83;;
67747;SDS011;54543;50.712;6.070;2023-03-24T14:17:29;4.53;;;1.60;;
67747;SDS011;54543;50.712;6.070;2023-03-24T14:25:01;5.38;;;1.50;;
67747;SDS011;54543;50.712;6.070;2023-03-24T14:30:56;3.38;;;1.40;;
67747;SDS011;54543;50.712;6.070;2023-03-24T14:33:26;3.30;;;1.40;;
67747;SDS011;54543;50.712;6.070;2023-03-24T14:35:56;5.47;;;1.92;;
67747;SDS011;54543;50.712;6.070;2023-03-24T14:38:29;4.13;;;1.40;;
67747;SDS011;54543;50.712;6.070;2023-03-24T14:41:04;2.85;;;0.98;;
67747;SDS011;54543;50.712;6.070;2023-03-24T14:46:03;3.75;;;1.30;;
67747;SDS011;54543;50.712;6.070;2023-03-24T14:48:41;3.33;;;1.17;;
67747;SDS011;54543;50.712;6.070;2023-03-24T14:51:17;6.25;;;1.92;;
67747;SDS011;54543;50.712;6.070;2023-03-24T14:57:04;3.03;;;1.58;;
67747;SDS011;54543;50.712;6.070;2023-03-24T14:59:40;4.75;;;1.73;;
67747;SDS011;54543;50.712;6.070;2023-03-24T15:05:14;4.15;;;1.65;;
67747;SDS011;54543;50.712;6.070;2023-03-24T15:07:44;4.65;;;1.30;;
67747;SDS011;54543;50.712;6.070;2023-03-24T15:10:23;6.18;;;2.08;;
67747;SDS011;54543;50.712;6.070;2023-03-24T15:12:48;8.00;;;1.80;;
67747;SDS011;54543;50.712;6.070;2023-03-24T15:15:15;5.22;;;1.60;;
67747;SDS011;54543;50.712;6.070;2023-03-24T15:17:43;7.55;;;1.40;;
67747;SDS011;54543;50.712;6.070;2023-03-24T15:20:20;4.63;;;1.27;;
67747;SDS011;54543;50.712;6.070;2023-03-24T15:23:07;4.78;;;1.33;;
67747;SDS011;54543;50.712;6.070;2023-03-24T15:25:41;2.78;;;1.00;;
67747;SDS011;54543;50.712;6.070;2023-03-24T15:28:29;6.53;;;1.42;;
67747;SDS011;54543;50.712;6.070;2023-03-24T15:30:55;3.90;;;1.17;;
67747;SDS011;54543;50.712;6.070;2023-03-24T15:33:23;3.38;;;1.20;;
67747;SDS011;54543;50.712;6.070;2023-03-24T15:35:56;3.00;;;1.10;;
67747;SDS011;54543;50.712;6.070;2023-03-24T15:38:28;2.08;;;0.95;;
67747;SDS011;54543;50.712;6.070;2023-03-24T15:40:59;6.53;;;1.73;;
67747;SDS011;54543;50.712;6.070;2023-03-24T15:43:27;2.13;;;1.10;;
67747;SDS011;54543;50.712;6.070;2023-03-24T15:45:54;4.65;;;1.83;;
67747;SDS011;54543;50.712;6.070;2023-03-24T15:48:21;4.15;;;1.48;;
67747;SDS011;54543;50.712;6.070;2023-03-24T15:53:45;3.80;;;1.20;;
67747;SDS011;54543;50.712;6.070;2023-03-24T15:56:28;2.30;;;1.10;;
67747;SDS011;54543;50.712;6.070;2023-03-24T15:59:11;3.45;;;1.17;;
67747;SDS011;54543;50.712;6.070;2023-03-24T16:01:39;7.80;;;1.63;;
67747;SDS011;54543;50.712;6.070;2023-03-24T16:04:07;6.10;;;1.48;;
67747;SDS011;54543;50.712;6.070;2023-03-24T16:06:42;4.13;;;1.70;;
67747;SDS011;54543;50.712;6.070;2023-03-24T16:09:13;5.85;;;2.13;;
67747;SDS011;54543;50.712;6.070;2023-03-24T16:11:40;5.43;;;1.73;;
67747;SDS011;54543;50.712;6.070;2023-03-24T16:14:18;4.72;;;1.67;;
67747;SDS011;54543;50.712;6.070;2023-03-24T16:16:56;5.18;;;1.65;;
67747;SDS011;54543;50.712;6.070;2023-03-24T16:19:23;7.13;;;3.03;;
67747;SDS011;54543;50.712;6.070;2023-03-24T16:21:49;3.80;;;1.88;;
67747;SDS011;54543;50.712;6.070;2023-03-24T16:24:15;3.78;;;1.55;;
67747;SDS011;54543;50.712;6.070;2023-03-24T16:26:41;5.18;;;2.55;;
67747;SDS011;54543;50.712;6.070;2023-03-24T16:31:40;3.78;;;2.03;;
67747;SDS011;54543;50.712;6.070;2023-03-24T16:34:06;6.35;;;2.63;;
67747;SDS011;54543;50.712;6.070;2023-03-24T16:36:31;5.30;;;2.50;;
67747;SDS011;54543;50.712;6.070;2023-03-24T16:38:57;7.32;;;2.80;;
67747;SDS011;54543;50.712;6.070;2023-03-24T16:41:25;5.00;;;2.13;;
67747;SDS011;54543;50.712;6.070;2023-03-24T16:43:51;10.50;;;5.20;;
67747;SDS011;54543;50.712;6.070;2023-03-24T16:46:39;5.03;;;2.58;;
67747;SDS011;54543;50.712;6.070;2023-03-24T16:49:08;7.63;;;3.00;;
67747;SDS011;54543;50.712;6.070;2023-03-24T16:51:36;6.85;;;3.33;;
67747;SDS011;54543;50.712;6.070;2023-03-24T16:54:02;6.55;;;3.10;;
67747;SDS011;54543;50.712;6.070;2023-03-24T16:56:28;7.57;;;4.10;;
67747;SDS011;54543;50.712;6.070;2023-03-24T16:58:54;4.68;;;2.88;;
67747;SDS011;54543;50.712;6.070;2023-03-24T17:01:28;3.67;;;2.25;;
67747;SDS011;54543;50.712;6.070;2023-03-24T17:06:37;5.95;;;3.58;;
67747;SDS011;54543;50.712;6.070;2023-03-24T17:09:06;7.35;;;3.95;;
67747;SDS011;54543;50.712;6.070;2023-03-24T17:11:33;5.85;;;3.58;;
67747;SDS011;54543;50.712;6.070;2023-03-24T17:14:02;7.28;;;3.58;;
67747;SDS011;54543;50.712;6.070;2023-03-24T17:16:30;4.65;;;2.70;;
67747;SDS011;54543;50.712;6.070;2023-03-24T17:18:57;5.47;;;2.30;;
67747;SDS011;54543;50.712;6.070;2023-03-24T17:21:22;7.60;;;3.55;;
67747;SDS011;54543;50.712;6.070;2023-03-24T17:23:48;5.45;;;2.60;;
67747;SDS011;54543;50.712;6.070;2023-03-24T17:26:19;9.30;;;4.63;;
67747;SDS011;54543;50.712;6.070;2023-03-24T17:28:46;11.70;;;5.05;;
67747;SDS011;54543;50.712;6.070;2023-03-24T17:31:12;19.33;;;11.13;;
67747;SDS011;54543;50.712;6.070;2023-03-24T17:33:37;14.13;;;9.23;;
67747;SDS011;54543;50.712;6.070;2023-03-24T17:36:03;17.00;;;11.45;;
67747;SDS011;54543;50.712;6.070;2023-03-24T17:38:29;14.40;;;9.00;;
67747;SDS011;54543;50.712;6.070;2023-03-24T17:40:58;7.07;;;5.07;;
67747;SDS011;54543;50.712;6.070;2023-03-24T17:43:25;9.02;;;5.43;;
67747;SDS011;54543;50.712;6.070;2023-03-24T17:45:54;10.10;;;4.95;;
67747;SDS011;54543;50.712;6.070;2023-03-24T17:48:23;6.32;;;3.95;;
67747;SDS011;54543;50.712;6.070;2023-03-24T17:50:50;5.13;;;3.10;;
67747;SDS011;54543;50.712;6.070;2023-03-24T17:53:16;5.35;;;3.72;;
67747;SDS011;54543;50.712;6.070;2023-03-24T17:55:52;5.43;;;3.25;;
67747;SDS011;54543;50.712;6.070;2023-03-24T17:58:20;5.28;;;2.65;;
67747;SDS011;54543;50.712;6.070;2023-03-24T18:00:47;7.97;;;3.92;;
67747;SDS011;54543;50.712;6.070;2023-03-24T18:03:13;7.07;;;3.78;;
67747;SDS011;54543;50.712;6.070;2023-03-24T18:05:39;6.30;;;2.63;;
67747;SDS011;54543;50.712;6.070;2023-03-24T18:08:05;7.47;;;3.70;;